sensor_id;sensor_type;location;lat;lon;timestamp;noise_LAeq;noise_LA_min;noise_LA_max;noise_LA01;noise_LA95
186;Laerm;55473;48.800;9.002;2023-12-20T00:01:49;42.21;39.04;50.18;;
186;Laerm;55473;48.800;9.002;2023-12-20T00:04:15;39.54;36.97;44.53;;
186;Laerm;55473;48.800;9.002;2023-12-20T00:06:41;40.31;37.13;45.69;;
186;Laerm;55473;48.800;9.002;2023-12-20T00:09:07;39.35;36.43;47.10;;
186;Laerm;55473;48.800;9.002;2023-12-20T00:11:33;38.44;36.12;43.35;;
186;Laerm;55473;48.800;9.002;2023-12-20T00:13:58;39.43;35.82;47.50;;
186;Laerm;55473;48.800;9.002;2023-12-20T00:16:24;44.16;37.67;54.34;;
186;Laerm;55473;48.800;9.002;2023-12-20T00:18:50;44.06;39.81;54.60;;
186;Laerm;55473;48.800;9.002;2023-12-20T00:21:16;44.23;39.34;55.30;;
186;Laerm;55473;48.800;9.002;2023-12-20T00:23:42;46.78;41.15;59.48;;
186;Laerm;55473;48.800;9.002;2023-12-20T00:26:08;46.78;40.99;63.84;;
186;Laerm;55473;48.800;9.002;2023-12-20T00:28:34;55.32;42.10;68.05;;
186;Laerm;55473;48.800;9.002;2023-12-20T00:30:59;47.30;41.41;65.22;;
186;Laerm;55473;48.800;9.002;2023-12-20T00:33:25;48.41;40.48;69.19;;
186;Laerm;55473;48.800;9.002;2023-12-20T00:35:51;48.90;41.07;68.74;;
186;Laerm;55473;48.800;9.002;2023-12-20T00:38:17;52.20;40.91;69.78;;
186;Laerm;55473;48.800;9.002;2023-12-20T00:40:43;47.13;38.50;69.80;;
186;Laerm;55473;48.800;9.002;2023-12-20T00:43:09;47.53;38.28;68.44;;
186;Laerm;55473;48.800;9.002;2023-12-20T00:45:34;47.80;38.11;67.94;;
186;Laerm;55473;48.800;9.002;2023-12-20T00:48:00;49.78;39.91;72.35;;
186;Laerm;55473;48.800;9.002;2023-12-20T00:50:26;52.97;43.93;71.88;;
186;Laerm;55473;48.800;9.002;2023-12-20T00:52:52;52.92;43.23;70.79;;
186;Laerm;55473;48.800;9.002;2023-12-20T00:55:18;54.99;44.07;71.26;;
186;Laerm;55473;48.800;9.002;2023-12-20T00:57:44;55.63;47.17;74.57;;
186;Laerm;55473;48.800;9.002;2023-12-20T01:00:10;55.88;46.90;73.57;;
186;Laerm;55473;48.800;9.002;2023-12-20T01:02:36;57.40;48.67;71.90;;
186;Laerm;55473;48.800;9.002;2023-12-20T01:05:02;58.09;50.16;71.58;;
186;Laerm;55473;48.800;9.002;2023-12-20T01:07:28;56.43;46.77;72.34;;
186;Laerm;55473;48.800;9.002;2023-12-20T01:09:54;54.39;43.60;72.54;;
186;Laerm;55473;48.800;9.002;2023-12-20T01:12:20;54.83;45.51;71.73;;
186;Laerm;55473;48.800;9.002;2023-12-20T01:14:46;53.70;44.52;71.84;;
186;Laerm;55473;48.800;9.002;2023-12-20T01:17:12;53.94;44.48;73.10;;
186;Laerm;55473;48.800;9.002;2023-12-20T01:19:38;54.17;41.74;72.37;;
186;Laerm;55473;48.800;9.002;2023-12-20T01:22:04;53.16;41.81;72.02;;
186;Laerm;55473;48.800;9.002;2023-12-20T01:24:31;52.78;43.66;71.43;;
186;Laerm;55473;48.800;9.002;2023-12-20T01:26:56;55.05;43.83;72.87;;
186;Laerm;55473;48.800;9.002;2023-12-20T01:29:22;55.49;45.20;72.34;;
186;Laerm;55473;48.800;9.002;2023-12-20T01:31:48;55.43;44.33;72.80;;
186;Laerm;55473;48.800;9.002;2023-12-20T01:34:14;53.68;42.75;71.91;;
186;Laerm;55473;48.800;9.002;2023-12-20T01:36:40;52.75;42.39;72.73;;
186;Laerm;55473;48.800;9.002;2023-12-20T01:39:06;52.14;42.02;73.38;;
186;Laerm;55473;48.800;9.002;2023-12-20T01:41:32;52.02;42.70;71.51;;
186;Laerm;55473;48.800;9.002;2023-12-20T01:43:57;52.98;43.26;73.66;;
186;Laerm;55473;48.800;9.002;2023-12-20T01:46:24;52.97;43.00;72.54;;
186;Laerm;55473;48.800;9.002;2023-12-20T01:48:51;53.17;43.49;73.05;;
186;Laerm;55473;48.800;9.002;2023-12-20T01:51:19;51.90;41.52;70.65;;
186;Laerm;55473;48.800;9.002;2023-12-20T01:53:47;50.56;40.17;72.89;;
186;Laerm;55473;48.800;9.002;2023-12-20T01:56:15;50.27;39.40;71.28;;
186;Laerm;55473;48.800;9.002;2023-12-20T01:58:46;48.43;39.13;71.32;;
186;Laerm;55473;48.800;9.002;2023-12-20T02:01:13;49.33;40.47;70.90;;
186;Laerm;55473;48.800;9.002;2023-12-20T02:03:41;48.75;39.79;72.92;;
186;Laerm;55473;48.800;9.002;2023-12-20T02:06:08;48.84;38.46;70.10;;
186;Laerm;55473;48.800;9.002;2023-12-20T02:08:35;48.20;37.67;71.73;;
186;Laerm;55473;48.800;9.002;2023-12-20T02:11:01;47.28;37.75;71.77;;
186;Laerm;55473;48.800;9.002;2023-12-20T02:13:27;48.10;37.37;71.07;;
186;Laerm;55473;48.800;9.002;2023-12-20T02:15:54;46.87;37.97;70.58;;
186;Laerm;55473;48.800;9.002;2023-12-20T02:18:21;46.89;37.08;70.32;;
186;Laerm;55473;48.800;9.002;2023-12-20T02:20:47;46.31;38.11;69.93;;
186;Laerm;55473;48.800;9.002;2023-12-20T02:23:13;46.04;38.17;70.43;;
186;Laerm;55473;48.800;9.002;2023-12-20T02:25:38;46.25;37.74;69.87;;
186;Laerm;55473;48.800;9.002;2023-12-20T02:28:05;45.65;38.00;70.15;;
186;Laerm;55473;48.800;9.002;2023-12-20T02:30:32;46.17;37.97;68.66;;
186;Laerm;55473;48.800;9.002;2023-12-20T02:32:59;46.70;38.23;70.07;;
186;Laerm;55473;48.800;9.002;2023-12-20T02:35:26;47.31;38.44;72.37;;
186;Laerm;55473;48.800;9.002;2023-12-20T02:37:52;47.00;37.60;70.23;;
186;Laerm;55473;48.800;9.002;2023-12-20T02:40:18;47.19;38.22;74.20;;
186;Laerm;55473;48.800;9.002;2023-12-20T02:42:43;47.08;38.85;72.65;;
186;Laerm;55473;48.800;9.002;2023-12-20T02:45:09;46.96;39.82;69.25;;
186;Laerm;55473;48.800;9.002;2023-12-20T02:47:35;49.08;40.56;71.52;;
186;Laerm;55473;48.800;9.002;2023-12-20T02:50:01;49.78;41.65;72.78;;
186;Laerm;55473;48.800;9.002;2023-12-20T02:52:28;49.70;41.12;69.57;;
186;Laerm;55473;48.800;9.002;2023-12-20T02:54:54;50.98;41.65;72.77;;
186;Laerm;55473;48.800;9.002;2023-12-20T02:57:20;49.69;40.43;71.18;;
186;Laerm;55473;48.800;9.002;2023-12-20T02:59:46;50.78;40.83;72.54;;
186;Laerm;55473;48.800;9.002;2023-12-20T03:02:12;52.41;42.50;73.68;;
186;Laerm;55473;48.800;9.002;2023-12-20T03:04:38;52.61;42.26;72.57;;
186;Laerm;55473;48.800;9.002;2023-12-20T03:07:03;52.92;41.01;69.88;;
186;Laerm;55473;48.800;9.002;2023-12-20T03:09:29;51.74;42.06;71.96;;
186;Laerm;55473;48.800;9.002;2023-12-20T03:11:55;52.61;43.39;73.09;;
186;Laerm;55473;48.800;9.002;2023-12-20T03:14:21;52.92;44.26;73.50;;
186;Laerm;55473;48.800;9.002;2023-12-20T03:16:49;52.53;44.13;72.45;;
186;Laerm;55473;48.800;9.002;2023-12-20T03:19:17;53.81;43.73;73.07;;
186;Laerm;55473;48.800;9.002;2023-12-20T03:21:43;52.91;43.55;71.97;;
186;Laerm;55473;48.800;9.002;2023-12-20T03:24:09;51.93;42.73;71.70;;
186;Laerm;55473;48.800;9.002;2023-12-20T03:26:35;52.18;41.66;72.50;;
186;Laerm;55473;48.800;9.002;2023-12-20T03:29:01;50.37;40.85;73.52;;
186;Laerm;55473;48.800;9.002;2023-12-20T03:31:26;50.23;40.54;73.91;;
186;Laerm;55473;48.800;9.002;2023-12-20T03:33:52;52.11;40.75;74.40;;
186;Laerm;55473;48.800;9.002;2023-12-20T03:36:20;50.62;42.64;72.40;;
186;Laerm;55473;48.800;9.002;2023-12-20T03:38:46;50.50;40.75;71.47;;
186;Laerm;55473;48.800;9.002;2023-12-20T03:41:13;50.65;40.28;71.46;;
186;Laerm;55473;48.800;9.002;2023-12-20T03:43:39;49.37;40.57;71.13;;
186;Laerm;55473;48.800;9.002;2023-12-20T03:46:05;50.10;41.17;71.97;;
186;Laerm;55473;48.800;9.002;2023-12-20T03:48:31;50.38;39.86;72.81;;
186;Laerm;55473;48.800;9.002;2023-12-20T03:50:57;48.31;39.78;69.56;;
186;Laerm;55473;48.800;9.002;2023-12-20T03:53:23;49.26;39.71;71.56;;
186;Laerm;55473;48.800;9.002;2023-12-20T03:55:49;48.73;39.51;71.23;;
186;Laerm;55473;48.800;9.002;2023-12-20T03:58:15;48.82;39.24;71.82;;
186;Laerm;55473;48.800;9.002;2023-12-20T04:00:40;48.51;39.80;70.49;;
186;Laerm;55473;48.800;9.002;2023-12-20T04:03:07;48.20;39.73;71.65;;
186;Laerm;55473;48.800;9.002;2023-12-20T04:05:33;47.82;39.89;71.55;;
186;Laerm;55473;48.800;9.002;2023-12-20T04:08:01;49.16;40.68;72.82;;
186;Laerm;55473;48.800;9.002;2023-12-20T04:10:27;50.15;39.57;71.91;;
186;Laerm;55473;48.800;9.002;2023-12-20T04:12:53;48.07;38.88;71.86;;
186;Laerm;55473;48.800;9.002;2023-12-20T04:15:20;47.24;38.99;70.58;;
186;Laerm;55473;48.800;9.002;2023-12-20T04:17:46;48.70;39.21;70.00;;
186;Laerm;55473;48.800;9.002;2023-12-20T04:20:12;48.33;39.12;71.50;;
186;Laerm;55473;48.800;9.002;2023-12-20T04:22:38;44.98;38.47;67.46;;
186;Laerm;55473;48.800;9.002;2023-12-20T04:25:04;45.91;38.53;68.31;;
186;Laerm;55473;48.800;9.002;2023-12-20T04:27:30;46.08;38.88;71.94;;
186;Laerm;55473;48.800;9.002;2023-12-20T04:29:56;45.97;39.49;69.62;;
186;Laerm;55473;48.800;9.002;2023-12-20T04:32:22;48.84;40.77;67.50;;
186;Laerm;55473;48.800;9.002;2023-12-20T04:34:48;46.00;40.62;68.95;;
186;Laerm;55473;48.800;9.002;2023-12-20T04:37:14;43.87;39.95;66.33;;
186;Laerm;55473;48.800;9.002;2023-12-20T04:39:40;44.14;39.14;69.70;;
186;Laerm;55473;48.800;9.002;2023-12-20T04:42:07;46.25;39.72;71.87;;
186;Laerm;55473;48.800;9.002;2023-12-20T04:44:33;47.40;39.44;72.37;;
186;Laerm;55473;48.800;9.002;2023-12-20T04:46:59;45.32;38.98;69.85;;
186;Laerm;55473;48.800;9.002;2023-12-20T04:49:25;43.71;39.76;62.53;;
186;Laerm;55473;48.800;9.002;2023-12-20T04:51:51;49.52;40.33;71.81;;
186;Laerm;55473;48.800;9.002;2023-12-20T04:54:17;45.34;40.42;68.23;;
186;Laerm;55473;48.800;9.002;2023-12-20T04:56:43;44.12;40.46;64.70;;
186;Laerm;55473;48.800;9.002;2023-12-20T04:59:09;45.66;40.24;67.16;;
186;Laerm;55473;48.800;9.002;2023-12-20T05:01:34;46.16;39.97;70.06;;
186;Laerm;55473;48.800;9.002;2023-12-20T05:04:00;48.74;40.14;66.80;;
186;Laerm;55473;48.800;9.002;2023-12-20T05:06:26;44.32;39.61;70.83;;
186;Laerm;55473;48.800;9.002;2023-12-20T05:08:52;43.81;39.87;70.03;;
186;Laerm;55473;48.800;9.002;2023-12-20T05:11:18;45.02;39.55;65.19;;
186;Laerm;55473;48.800;9.002;2023-12-20T05:13:44;46.83;40.35;68.70;;
186;Laerm;55473;48.800;9.002;2023-12-20T05:16:09;45.44;39.78;64.66;;
186;Laerm;55473;48.800;9.002;2023-12-20T05:18:36;44.60;39.53;66.38;;
186;Laerm;55473;48.800;9.002;2023-12-20T05:21:02;48.30;39.26;73.38;;
186;Laerm;55473;48.800;9.002;2023-12-20T05:23:28;43.74;39.34;65.58;;
186;Laerm;55473;48.800;9.002;2023-12-20T05:25:54;43.99;39.42;63.86;;
186;Laerm;55473;48.800;9.002;2023-12-20T05:28:20;44.66;40.57;63.44;;
186;Laerm;55473;48.800;9.002;2023-12-20T05:30:46;45.59;40.37;67.46;;
186;Laerm;55473;48.800;9.002;2023-12-20T05:33:12;46.16;40.90;68.19;;
186;Laerm;55473;48.800;9.002;2023-12-20T05:35:37;46.77;41.63;70.16;;
186;Laerm;55473;48.800;9.002;2023-12-20T05:38:03;48.71;42.42;68.54;;
186;Laerm;55473;48.800;9.002;2023-12-20T05:40:29;50.86;42.25;72.07;;
186;Laerm;55473;48.800;9.002;2023-12-20T05:42:55;51.73;42.37;71.50;;
186;Laerm;55473;48.800;9.002;2023-12-20T05:45:21;52.21;40.92;72.38;;
186;Laerm;55473;48.800;9.002;2023-12-20T05:47:47;52.11;43.66;71.76;;
186;Laerm;55473;48.800;9.002;2023-12-20T05:50:12;51.43;42.36;72.98;;
186;Laerm;55473;48.800;9.002;2023-12-20T05:52:38;52.06;43.66;71.85;;
186;Laerm;55473;48.800;9.002;2023-12-20T05:55:04;51.85;43.43;73.57;;
186;Laerm;55473;48.800;9.002;2023-12-20T05:57:30;50.49;42.62;73.72;;
186;Laerm;55473;48.800;9.002;2023-12-20T05:59:56;52.67;42.87;74.52;;
186;Laerm;55473;48.800;9.002;2023-12-20T06:02:22;51.36;43.47;73.03;;
186;Laerm;55473;48.800;9.002;2023-12-20T06:04:48;55.89;42.60;70.34;;
186;Laerm;55473;48.800;9.002;2023-12-20T06:07:15;51.30;42.98;71.61;;
186;Laerm;55473;48.800;9.002;2023-12-20T06:09:41;50.74;43.20;70.20;;
186;Laerm;55473;48.800;9.002;2023-12-20T06:12:07;50.62;43.66;73.09;;
186;Laerm;55473;48.800;9.002;2023-12-20T06:14:36;49.06;43.25;69.78;;
186;Laerm;55473;48.800;9.002;2023-12-20T06:17:03;51.91;44.02;72.36;;
186;Laerm;55473;48.800;9.002;2023-12-20T06:19:29;50.69;43.58;72.95;;
186;Laerm;55473;48.800;9.002;2023-12-20T06:21:55;49.77;42.72;72.80;;
186;Laerm;55473;48.800;9.002;2023-12-20T06:24:21;48.91;43.29;71.52;;
186;Laerm;55473;48.800;9.002;2023-12-20T06:26:47;49.53;43.24;71.81;;
186;Laerm;55473;48.800;9.002;2023-12-20T06:29:13;49.81;44.02;70.52;;
186;Laerm;55473;48.800;9.002;2023-12-20T06:31:38;50.45;44.28;70.78;;
186;Laerm;55473;48.800;9.002;2023-12-20T06:34:04;51.83;44.06;71.08;;
186;Laerm;55473;48.800;9.002;2023-12-20T06:36:30;51.07;44.25;71.49;;
186;Laerm;55473;48.800;9.002;2023-12-20T06:38:56;49.25;42.04;73.50;;
186;Laerm;55473;48.800;9.002;2023-12-20T06:41:22;50.75;43.54;72.19;;
186;Laerm;55473;48.800;9.002;2023-12-20T06:43:50;47.85;42.95;67.05;;
186;Laerm;55473;48.800;9.002;2023-12-20T06:46:17;49.44;43.45;65.96;;
186;Laerm;55473;48.800;9.002;2023-12-20T06:48:43;49.50;42.41;72.11;;
186;Laerm;55473;48.800;9.002;2023-12-20T06:51:14;47.13;42.72;66.58;;
186;Laerm;55473;48.800;9.002;2023-12-20T06:53:40;47.63;41.65;69.87;;
186;Laerm;55473;48.800;9.002;2023-12-20T06:56:06;47.71;41.01;68.87;;
186;Laerm;55473;48.800;9.002;2023-12-20T06:58:33;47.92;41.39;61.25;;
186;Laerm;55473;48.800;9.002;2023-12-20T07:00:59;47.84;41.58;70.48;;
186;Laerm;55473;48.800;9.002;2023-12-20T07:03:24;50.17;41.83;70.82;;
186;Laerm;55473;48.800;9.002;2023-12-20T07:05:50;48.34;41.65;72.65;;
186;Laerm;55473;48.800;9.002;2023-12-20T07:08:16;48.81;39.89;68.87;;
186;Laerm;55473;48.800;9.002;2023-12-20T07:10:42;45.94;41.86;61.83;;
186;Laerm;55473;48.800;9.002;2023-12-20T07:13:08;48.76;41.10;72.28;;
186;Laerm;55473;48.800;9.002;2023-12-20T07:15:34;49.79;44.53;67.50;;
186;Laerm;55473;48.800;9.002;2023-12-20T07:18:00;48.89;43.12;68.69;;
186;Laerm;55473;48.800;9.002;2023-12-20T07:20:26;48.45;43.69;65.45;;
186;Laerm;55473;48.800;9.002;2023-12-20T07:22:52;48.96;42.56;70.62;;
186;Laerm;55473;48.800;9.002;2023-12-20T07:25:18;47.53;42.65;69.13;;
186;Laerm;55473;48.800;9.002;2023-12-20T07:27:44;48.52;42.47;68.48;;
186;Laerm;55473;48.800;9.002;2023-12-20T07:30:10;48.41;41.94;67.33;;
186;Laerm;55473;48.800;9.002;2023-12-20T07:32:36;50.65;44.86;67.81;;
186;Laerm;55473;48.800;9.002;2023-12-20T07:35:02;48.97;43.82;68.07;;
186;Laerm;55473;48.800;9.002;2023-12-20T07:37:28;48.85;42.82;57.99;;
186;Laerm;55473;48.800;9.002;2023-12-20T07:39:54;47.25;42.64;58.93;;
186;Laerm;55473;48.800;9.002;2023-12-20T07:42:20;49.86;42.35;60.93;;
186;Laerm;55473;48.800;9.002;2023-12-20T07:44:47;47.82;42.87;61.16;;
186;Laerm;55473;48.800;9.002;2023-12-20T07:47:13;50.18;43.81;60.17;;
186;Laerm;55473;48.800;9.002;2023-12-20T07:49:42;49.65;42.62;68.49;;
186;Laerm;55473;48.800;9.002;2023-12-20T07:52:08;46.40;42.40;58.81;;
186;Laerm;55473;48.800;9.002;2023-12-20T07:54:34;47.34;41.55;57.51;;
186;Laerm;55473;48.800;9.002;2023-12-20T07:57:00;46.98;41.92;60.79;;
186;Laerm;55473;48.800;9.002;2023-12-20T07:59:26;46.73;41.56;61.38;;
186;Laerm;55473;48.800;9.002;2023-12-20T08:01:52;48.89;42.22;75.43;;
186;Laerm;55473;48.800;9.002;2023-12-20T08:04:17;49.60;42.95;59.15;;
186;Laerm;55473;48.800;9.002;2023-12-20T08:06:43;48.94;42.30;63.65;;
186;Laerm;55473;48.800;9.002;2023-12-20T08:09:09;52.33;42.92;61.52;;
186;Laerm;55473;48.800;9.002;2023-12-20T08:11:37;47.95;43.59;59.11;;
186;Laerm;55473;48.800;9.002;2023-12-20T08:14:03;48.33;43.59;60.49;;
186;Laerm;55473;48.800;9.002;2023-12-20T08:16:29;49.23;43.68;59.82;;
186;Laerm;55473;48.800;9.002;2023-12-20T08:18:55;49.33;43.91;61.30;;
186;Laerm;55473;48.800;9.002;2023-12-20T08:21:20;47.53;42.76;61.26;;
186;Laerm;55473;48.800;9.002;2023-12-20T08:23:48;51.15;42.66;72.21;;
186;Laerm;55473;48.800;9.002;2023-12-20T08:26:19;48.29;42.96;67.55;;
186;Laerm;55473;48.800;9.002;2023-12-20T08:28:50;45.72;41.79;51.99;;
186;Laerm;55473;48.800;9.002;2023-12-20T08:31:17;54.39;43.34;63.39;;
186;Laerm;55473;48.800;9.002;2023-12-20T08:33:45;53.42;41.78;65.22;;
186;Laerm;55473;48.800;9.002;2023-12-20T08:36:12;50.56;43.15;62.72;;
186;Laerm;55473;48.800;9.002;2023-12-20T08:38:38;47.45;42.14;63.25;;
186;Laerm;55473;48.800;9.002;2023-12-20T08:41:04;48.28;41.89;61.84;;
186;Laerm;55473;48.800;9.002;2023-12-20T08:43:36;50.17;42.25;72.14;;
186;Laerm;55473;48.800;9.002;2023-12-20T08:46:02;47.39;41.30;55.35;;
186;Laerm;55473;48.800;9.002;2023-12-20T08:48:28;49.89;42.87;61.88;;
186;Laerm;55473;48.800;9.002;2023-12-20T08:50:55;47.49;42.67;61.62;;
186;Laerm;55473;48.800;9.002;2023-12-20T08:53:20;48.32;43.22;64.04;;
186;Laerm;55473;48.800;9.002;2023-12-20T08:55:48;47.63;42.09;66.06;;
186;Laerm;55473;48.800;9.002;2023-12-20T08:58:15;47.33;42.48;65.74;;
186;Laerm;55473;48.800;9.002;2023-12-20T09:00:41;50.54;44.46;60.28;;
186;Laerm;55473;48.800;9.002;2023-12-20T09:03:06;51.46;45.98;60.20;;
186;Laerm;55473;48.800;9.002;2023-12-20T09:05:32;49.77;44.94;62.49;;
186;Laerm;55473;48.800;9.002;2023-12-20T09:07:58;50.30;46.49;58.98;;
186;Laerm;55473;48.800;9.002;2023-12-20T09:10:24;49.88;45.33;62.00;;
186;Laerm;55473;48.800;9.002;2023-12-20T09:12:52;50.49;45.26;61.46;;
186;Laerm;55473;48.800;9.002;2023-12-20T09:15:26;50.34;46.31;60.29;;
186;Laerm;55473;48.800;9.002;2023-12-20T09:17:53;51.90;43.51;62.40;;
186;Laerm;55473;48.800;9.002;2023-12-20T09:20:20;47.64;42.77;63.10;;
186;Laerm;55473;48.800;9.002;2023-12-20T09:22:46;47.87;43.40;56.82;;
186;Laerm;55473;48.800;9.002;2023-12-20T09:25:12;47.30;42.34;54.69;;
186;Laerm;55473;48.800;9.002;2023-12-20T09:27:40;47.56;42.70;59.41;;
186;Laerm;55473;48.800;9.002;2023-12-20T09:30:07;47.75;41.23;61.67;;
186;Laerm;55473;48.800;9.002;2023-12-20T09:32:33;47.64;42.47;58.48;;
186;Laerm;55473;48.800;9.002;2023-12-20T09:34:59;50.90;42.38;61.68;;
186;Laerm;55473;48.800;9.002;2023-12-20T09:37:28;48.04;43.03;61.47;;
186;Laerm;55473;48.800;9.002;2023-12-20T09:39:54;48.29;43.30;60.31;;
186;Laerm;55473;48.800;9.002;2023-12-20T09:45:09;47.71;41.49;55.39;;
186;Laerm;55473;48.800;9.002;2023-12-20T09:47:35;51.68;43.50;69.52;;
186;Laerm;55473;48.800;9.002;2023-12-20T09:50:02;49.44;43.43;66.90;;
186;Laerm;55473;48.800;9.002;2023-12-20T09:52:28;56.67;41.78;69.78;;
186;Laerm;55473;48.800;9.002;2023-12-20T09:54:56;47.95;42.94;62.64;;
186;Laerm;55473;48.800;9.002;2023-12-20T09:57:22;46.88;42.42;69.23;;
186;Laerm;55473;48.800;9.002;2023-12-20T09:59:48;46.99;42.56;59.53;;
186;Laerm;55473;48.800;9.002;2023-12-20T10:02:19;49.90;43.10;68.65;;
186;Laerm;55473;48.800;9.002;2023-12-20T10:04:48;48.28;43.04;61.22;;
186;Laerm;55473;48.800;9.002;2023-12-20T10:07:14;50.40;42.65;67.00;;
186;Laerm;55473;48.800;9.002;2023-12-20T10:09:42;47.50;42.24;70.78;;
186;Laerm;55473;48.800;9.002;2023-12-20T10:12:08;47.89;44.42;60.61;;
186;Laerm;55473;48.800;9.002;2023-12-20T10:14:34;50.62;43.49;74.10;;
186;Laerm;55473;48.800;9.002;2023-12-20T10:17:04;48.00;42.06;57.89;;
186;Laerm;55473;48.800;9.002;2023-12-20T10:19:32;49.87;43.49;60.24;;
186;Laerm;55473;48.800;9.002;2023-12-20T10:21:59;47.81;42.84;62.20;;
186;Laerm;55473;48.800;9.002;2023-12-20T10:24:28;47.48;42.21;65.12;;
186;Laerm;55473;48.800;9.002;2023-12-20T10:27:06;47.34;42.15;58.02;;
186;Laerm;55473;48.800;9.002;2023-12-20T10:29:36;49.16;44.78;63.08;;
186;Laerm;55473;48.800;9.002;2023-12-20T10:32:25;49.31;42.87;67.14;;
186;Laerm;55473;48.800;9.002;2023-12-20T10:34:54;48.29;43.79;60.93;;
186;Laerm;55473;48.800;9.002;2023-12-20T10:37:20;50.40;42.69;65.91;;
186;Laerm;55473;48.800;9.002;2023-12-20T10:39:54;47.78;41.93;57.59;;
186;Laerm;55473;48.800;9.002;2023-12-20T10:42:26;49.73;43.16;63.05;;
186;Laerm;55473;48.800;9.002;2023-12-20T10:44:53;48.64;44.04;59.78;;
186;Laerm;55473;48.800;9.002;2023-12-20T10:47:22;51.20;45.60;60.53;;
186;Laerm;55473;48.800;9.002;2023-12-20T10:49:52;49.94;42.99;66.78;;
186;Laerm;55473;48.800;9.002;2023-12-20T10:52:18;48.26;42.30;64.24;;
186;Laerm;55473;48.800;9.002;2023-12-20T10:54:46;47.12;41.25;60.89;;
186;Laerm;55473;48.800;9.002;2023-12-20T10:57:12;48.95;43.46;69.12;;
186;Laerm;55473;48.800;9.002;2023-12-20T10:59:39;51.58;43.25;71.49;;
186;Laerm;55473;48.800;9.002;2023-12-20T11:02:06;51.81;43.50;73.50;;
186;Laerm;55473;48.800;9.002;2023-12-20T11:04:49;47.84;43.52;57.76;;
186;Laerm;55473;48.800;9.002;2023-12-20T11:10:20;49.73;41.90;71.00;;
186;Laerm;55473;48.800;9.002;2023-12-20T11:13:10;48.18;42.18;58.59;;
186;Laerm;55473;48.800;9.002;2023-12-20T11:15:38;49.49;42.25;71.22;;
186;Laerm;55473;48.800;9.002;2023-12-20T11:18:04;51.14;41.42;63.12;;
186;Laerm;55473;48.800;9.002;2023-12-20T11:20:38;48.67;41.00;67.88;;
186;Laerm;55473;48.800;9.002;2023-12-20T11:23:05;47.93;43.21;70.44;;
186;Laerm;55473;48.800;9.002;2023-12-20T11:25:56;47.66;40.65;58.24;;
186;Laerm;55473;48.800;9.002;2023-12-20T11:28:26;48.55;42.29;65.01;;
186;Laerm;55473;48.800;9.002;2023-12-20T11:30:57;47.73;41.42;56.77;;
186;Laerm;55473;48.800;9.002;2023-12-20T11:33:30;50.57;40.71;65.92;;
186;Laerm;55473;48.800;9.002;2023-12-20T11:35:58;46.34;41.58;54.45;;
186;Laerm;55473;48.800;9.002;2023-12-20T11:38:25;48.90;42.29;64.31;;
186;Laerm;55473;48.800;9.002;2023-12-20T11:40:54;49.29;42.51;63.92;;
186;Laerm;55473;48.800;9.002;2023-12-20T11:43:37;48.90;43.09;61.51;;
186;Laerm;55473;48.800;9.002;2023-12-20T11:46:08;48.83;42.74;61.09;;
186;Laerm;55473;48.800;9.002;2023-12-20T11:48:39;50.88;42.50;69.40;;
186;Laerm;55473;48.800;9.002;2023-12-20T11:51:13;48.48;41.70;59.92;;
186;Laerm;55473;48.800;9.002;2023-12-20T11:53:42;49.29;41.55;71.26;;
186;Laerm;55473;48.800;9.002;2023-12-20T11:56:09;49.04;42.94;62.65;;
186;Laerm;55473;48.800;9.002;2023-12-20T11:58:35;49.41;43.30;67.19;;
186;Laerm;55473;48.800;9.002;2023-12-20T12:01:02;50.45;43.11;66.11;;
186;Laerm;55473;48.800;9.002;2023-12-20T12:03:30;51.48;43.79;62.39;;
186;Laerm;55473;48.800;9.002;2023-12-20T12:05:57;48.87;42.78;62.84;;
186;Laerm;55473;48.800;9.002;2023-12-20T12:08:23;49.39;43.36;63.44;;
186;Laerm;55473;48.800;9.002;2023-12-20T12:10:50;49.75;42.67;69.33;;
186;Laerm;55473;48.800;9.002;2023-12-20T12:13:16;50.28;42.93;71.77;;
186;Laerm;55473;48.800;9.002;2023-12-20T12:15:42;49.55;41.86;71.59;;
186;Laerm;55473;48.800;9.002;2023-12-20T12:18:08;49.72;41.63;60.83;;
186;Laerm;55473;48.800;9.002;2023-12-20T12:20:34;50.84;42.61;74.39;;
186;Laerm;55473;48.800;9.002;2023-12-20T12:23:04;51.10;40.63;69.53;;
186;Laerm;55473;48.800;9.002;2023-12-20T12:25:35;49.41;42.20;63.62;;
186;Laerm;55473;48.800;9.002;2023-12-20T12:28:02;50.73;44.97;69.86;;
186;Laerm;55473;48.800;9.002;2023-12-20T12:30:28;47.81;42.07;58.69;;
186;Laerm;55473;48.800;9.002;2023-12-20T12:32:56;49.30;41.34;60.72;;
186;Laerm;55473;48.800;9.002;2023-12-20T12:35:23;48.25;40.98;61.42;;
186;Laerm;55473;48.800;9.002;2023-12-20T12:37:49;48.09;42.47;60.78;;
186;Laerm;55473;48.800;9.002;2023-12-20T12:40:17;51.59;42.56;63.90;;
186;Laerm;55473;48.800;9.002;2023-12-20T12:42:45;48.23;42.02;60.01;;
186;Laerm;55473;48.800;9.002;2023-12-20T12:45:11;50.00;44.08;62.28;;
186;Laerm;55473;48.800;9.002;2023-12-20T12:47:37;51.80;44.88;61.30;;
186;Laerm;55473;48.800;9.002;2023-12-20T12:50:04;49.67;43.35;64.32;;
186;Laerm;55473;48.800;9.002;2023-12-20T12:52:33;52.16;42.16;72.76;;
186;Laerm;55473;48.800;9.002;2023-12-20T12:54:59;50.85;42.78;67.07;;
186;Laerm;55473;48.800;9.002;2023-12-20T12:57:25;45.53;41.40;58.22;;
186;Laerm;55473;48.800;9.002;2023-12-20T12:59:51;45.80;40.91;64.66;;
186;Laerm;55473;48.800;9.002;2023-12-20T13:02:17;46.25;41.50;60.28;;
186;Laerm;55473;48.800;9.002;2023-12-20T13:04:47;51.36;43.51;58.09;;
186;Laerm;55473;48.800;9.002;2023-12-20T13:07:13;47.71;43.78;63.29;;
186;Laerm;55473;48.800;9.002;2023-12-20T13:09:39;46.76;42.71;60.11;;
186;Laerm;55473;48.800;9.002;2023-12-20T13:12:06;48.87;42.38;61.33;;
186;Laerm;55473;48.800;9.002;2023-12-20T13:14:34;47.57;40.92;64.07;;
186;Laerm;55473;48.800;9.002;2023-12-20T13:17:02;49.71;41.26;64.98;;
186;Laerm;55473;48.800;9.002;2023-12-20T13:19:29;49.48;43.00;66.46;;
186;Laerm;55473;48.800;9.002;2023-12-20T13:21:56;46.79;41.09;59.39;;
186;Laerm;55473;48.800;9.002;2023-12-20T13:24:23;46.18;41.31;58.30;;
186;Laerm;55473;48.800;9.002;2023-12-20T13:26:49;45.46;40.16;64.78;;
186;Laerm;55473;48.800;9.002;2023-12-20T13:29:16;46.14;40.79;56.87;;
186;Laerm;55473;48.800;9.002;2023-12-20T13:31:45;47.81;40.89;59.91;;
186;Laerm;55473;48.800;9.002;2023-12-20T13:34:11;45.77;40.07;51.94;;
186;Laerm;55473;48.800;9.002;2023-12-20T13:36:38;48.30;40.65;59.14;;
186;Laerm;55473;48.800;9.002;2023-12-20T13:39:04;47.72;42.36;62.78;;
186;Laerm;55473;48.800;9.002;2023-12-20T13:41:31;46.16;42.02;56.47;;
186;Laerm;55473;48.800;9.002;2023-12-20T13:43:57;48.55;42.33;68.59;;
186;Laerm;55473;48.800;9.002;2023-12-20T13:46:23;50.00;41.62;68.24;;
186;Laerm;55473;48.800;9.002;2023-12-20T13:48:49;49.68;43.47;59.04;;
186;Laerm;55473;48.800;9.002;2023-12-20T13:51:15;51.35;42.16;62.46;;
186;Laerm;55473;48.800;9.002;2023-12-20T13:53:41;46.64;41.22;72.13;;
186;Laerm;55473;48.800;9.002;2023-12-20T13:56:07;49.22;42.19;62.11;;
186;Laerm;55473;48.800;9.002;2023-12-20T13:58:33;45.75;41.34;58.27;;
186;Laerm;55473;48.800;9.002;2023-12-20T14:00:59;46.71;41.73;66.84;;
186;Laerm;55473;48.800;9.002;2023-12-20T14:03:25;48.10;41.72;56.63;;
186;Laerm;55473;48.800;9.002;2023-12-20T14:05:50;47.39;41.84;60.87;;
186;Laerm;55473;48.800;9.002;2023-12-20T14:08:16;52.68;42.83;65.67;;
186;Laerm;55473;48.800;9.002;2023-12-20T14:10:42;53.07;42.18;68.15;;
186;Laerm;55473;48.800;9.002;2023-12-20T14:13:08;49.69;41.51;64.22;;